createdAt,value
2018-08-03T00:00:34.178Z,99.90
2018-08-03T00:03:03.557Z,99.90
2018-08-03T00:05:32.788Z,99.90
2018-08-03T00:08:01.960Z,99.90
2018-08-03T00:10:31.147Z,99.90
2018-08-03T00:13:00.297Z,99.90
2018-08-03T00:15:29.487Z,99.90
2018-08-03T00:17:58.661Z,99.90
2018-08-03T00:38:30.960Z,99.90
2018-08-03T00:41:00.258Z,99.90
2018-08-03T00:43:29.426Z,99.90
2018-08-03T00:45:58.583Z,99.90
2018-08-03T00:48:27.961Z,99.90
2018-08-03T00:50:57.100Z,99.90
2018-08-03T00:53:26.269Z,99.90
2018-08-03T00:55:55.460Z,99.90
2018-08-03T00:58:24.633Z,99.90
2018-08-03T01:00:53.823Z,99.90
2018-08-03T01:21:26.464Z,99.90
2018-08-03T01:23:55.653Z,99.90
2018-08-03T01:26:24.828Z,99.90
2018-08-03T01:28:54.181Z,99.90
2018-08-03T01:31:23.355Z,99.90
2018-08-03T01:33:52.508Z,99.90
2018-08-03T01:36:21.708Z,99.90
2018-08-03T01:38:50.851Z,99.90
2018-08-03T01:59:24.490Z,99.90
2018-08-03T02:01:53.659Z,99.90
2018-08-03T02:04:22.812Z,99.90
2018-08-03T02:06:52.001Z,99.90
2018-08-03T02:09:21.173Z,99.90
2018-08-03T02:14:19.112Z,99.90
2018-08-03T02:16:48.337Z,99.90
2018-08-03T02:19:17.505Z,99.90
2018-08-03T02:21:46.687Z,99.90
2018-08-03T02:24:15.901Z,99.90
2018-08-03T02:26:45.089Z,99.90
2018-08-03T02:47:18.786Z,99.90
2018-08-03T02:49:48.682Z,99.90
2018-08-03T02:52:18.289Z,99.90
2018-08-03T03:12:52.169Z,99.90
2018-08-03T03:15:21.466Z,99.90
2018-08-03T03:17:50.901Z,99.90
2018-08-03T03:20:20.753Z,99.90
2018-08-03T03:40:54.479Z,99.90
2018-08-03T04:01:29.447Z,99.90
2018-08-03T04:22:03.381Z,99.90
2018-08-03T04:24:32.898Z,99.90
2018-08-03T04:45:06.050Z,99.90
2018-08-03T04:47:35.618Z,99.90
2018-08-03T04:50:05.147Z,99.90
2018-08-03T04:52:34.322Z,99.90
2018-08-03T04:55:03.681Z,99.90
2018-08-03T04:57:33.041Z,99.90
2018-08-03T05:00:03.085Z,99.90
2018-08-03T05:02:32.321Z,99.90
2018-08-03T05:05:02.367Z,99.90
2018-08-03T05:07:32.448Z,99.90
2018-08-03T05:10:02.116Z,99.90
2018-08-03T05:12:31.361Z,99.90
2018-08-03T05:15:00.636Z,99.90
2018-08-03T05:17:29.880Z,99.90
2018-08-03T05:19:59.420Z,99.90
2018-08-03T05:22:29.494Z,99.90
2018-08-03T05:24:59.661Z,99.90
2018-08-03T05:27:28.983Z,99.90
2018-08-03T05:29:58.827Z,99.90
2018-08-03T05:32:28.335Z,99.90
2018-08-03T05:34:57.997Z,99.90
2018-08-03T05:37:28.139Z,99.90
2018-08-03T05:39:57.414Z,99.90
2018-08-03T06:00:31.206Z,99.90
2018-08-03T06:03:00.957Z,99.90
2018-08-03T06:05:30.313Z,99.90
2018-08-03T06:07:59.758Z,99.90
2018-08-03T06:10:29.144Z,99.90
2018-08-03T06:31:01.970Z,99.90
2018-08-03T06:33:31.239Z,99.90
2018-08-03T06:36:00.612Z,99.90
2018-08-03T06:38:30.583Z,99.90
2018-08-03T06:41:00.878Z,99.90
2018-08-03T07:01:34.899Z,99.90
2018-08-03T07:04:04.480Z,99.90
2018-08-03T07:24:38.658Z,99.90
2018-08-03T07:27:08.083Z,99.90
2018-08-03T07:47:41.743Z,99.90
2018-08-03T08:08:15.859Z,99.90
2018-08-03T08:10:45.655Z,99.90
2018-08-03T08:31:20.246Z,99.90
2018-08-03T08:33:50.374Z,99.90
2018-08-03T08:54:23.997Z,99.90
2018-08-03T09:14:57.613Z,99.90
2018-08-03T09:17:26.842Z,99.90
2018-08-03T09:19:56.803Z,99.90
2018-08-03T09:22:26.224Z,99.90
2018-08-03T09:43:00.323Z,99.90
2018-08-03T09:45:29.750Z,99.90
2018-08-03T09:47:58.904Z,99.90
2018-08-03T09:52:57.081Z,99.90
2018-08-03T09:55:26.360Z,99.90
2018-08-03T09:57:55.660Z,99.90
2018-08-03T10:00:30.209Z,99.90
2018-08-03T10:02:59.466Z,99.90
2018-08-03T10:05:29.302Z,99.90
2018-08-03T10:26:03.223Z,99.90
2018-08-03T10:28:32.484Z,99.90
2018-08-03T10:31:05.463Z,99.90
2018-08-03T10:33:35.074Z,99.90
2018-08-03T10:54:09.173Z,99.90
2018-08-03T11:14:43.145Z,94.90
2018-08-03T11:17:12.403Z,94.70
2018-08-03T11:19:41.558Z,95.50
2018-08-03T11:22:12.334Z,94.60
2018-08-03T11:24:42.209Z,94.20
2018-08-03T11:27:12.176Z,92.80
2018-08-03T11:29:42.023Z,92.80
2018-08-03T11:32:11.425Z,90.70
2018-08-03T11:34:40.785Z,89.50
2018-08-03T11:37:10.195Z,84.10
2018-08-03T11:39:39.453Z,87.30
2018-08-03T11:42:08.730Z,85.60
2018-08-03T11:44:38.561Z,82.50
2018-08-03T11:47:07.878Z,82.80
2018-08-03T11:49:37.410Z,83.20
2018-08-03T11:52:07.578Z,82.90
2018-08-03T11:54:37.010Z,80.40
2018-08-03T12:15:10.719Z,78.90
2018-08-03T12:17:40.008Z,76.70
2018-08-03T12:20:09.260Z,73.50
2018-08-03T12:22:38.509Z,72.50
2018-08-03T12:25:07.827Z,74.90
2018-08-03T12:27:37.629Z,75.50
2018-08-03T12:30:07.442Z,77.60
2018-08-03T12:32:36.977Z,68.70
2018-08-03T12:35:06.406Z,71.80
2018-08-03T12:37:35.673Z,69.10
2018-08-03T12:40:05.430Z,68.00
2018-08-03T12:42:34.753Z,70.00
2018-08-03T12:45:04.141Z,69.10
2018-08-03T13:05:37.314Z,66.00
2018-08-03T13:08:07.690Z,67.20
2018-08-03T13:10:38.146Z,67.40
2018-08-03T13:13:07.509Z,64.80
2018-08-03T13:15:36.979Z,62.00
2018-08-03T13:36:09.729Z,59.00
2018-08-03T13:38:39.017Z,57.30
2018-08-03T13:41:08.481Z,57.60
2018-08-03T13:43:38.482Z,57.80
2018-08-03T14:04:19.604Z,51.10
2018-08-03T14:06:48.982Z,48.90
2018-08-03T14:09:19.875Z,48.80
2018-08-03T14:11:49.126Z,48.30
2018-08-03T14:32:15.717Z,44.20
2018-08-03T14:34:44.955Z,43.00
2018-08-03T14:37:14.848Z,42.50
2018-08-03T14:39:46.708Z,43.50
2018-08-03T14:42:16.803Z,43.50
2018-08-03T14:44:46.110Z,42.80
2018-08-03T14:47:16.377Z,43.20
2018-08-03T14:49:45.717Z,41.60
2018-08-03T14:54:45.124Z,40.70
2018-08-03T14:59:43.919Z,41.10
2018-08-03T15:02:13.214Z,41.80
2018-08-03T15:04:42.622Z,41.50
2018-08-03T15:07:11.958Z,41.70
2018-08-03T15:09:41.200Z,42.50
2018-08-03T15:12:10.978Z,44.70
2018-08-03T15:17:09.874Z,44.10
2018-08-03T15:19:39.128Z,43.70
2018-08-03T15:22:08.406Z,42.90
2018-08-03T15:24:37.669Z,43.30
2018-08-03T15:45:10.345Z,46.20
2018-08-03T16:05:45.576Z,46.20
2018-08-03T16:08:14.844Z,46.70
2018-08-03T16:10:45.625Z,47.20
2018-08-03T16:13:15.514Z,48.00
2018-08-03T16:15:44.808Z,48.50
2018-08-03T16:18:14.071Z,48.60
2018-08-03T16:20:43.701Z,49.80
2018-08-03T16:23:13.002Z,50.50
2018-08-03T16:25:42.324Z,51.50
2018-08-03T16:28:11.842Z,52.00
2018-08-03T16:30:41.079Z,52.20
2018-08-03T16:33:10.372Z,52.90
2018-08-03T16:35:41.330Z,53.80
2018-08-03T16:38:10.509Z,53.60
2018-08-03T16:40:41.284Z,54.30
2018-08-03T16:43:11.129Z,54.80
2018-08-03T17:03:36.826Z,54.70
2018-08-03T17:24:10.265Z,57.90
2018-08-03T17:26:40.973Z,58.00
2018-08-03T17:47:14.477Z,59.10
2018-08-03T17:49:43.850Z,60.00
2018-08-03T17:52:13.101Z,59.90
2018-08-03T18:12:46.681Z,61.90
2018-08-03T18:15:16.422Z,63.00
2018-08-03T18:17:45.824Z,63.60
2018-08-03T18:20:16.294Z,63.90
2018-08-03T18:22:45.712Z,63.80
2018-08-03T18:25:14.974Z,64.80
2018-08-03T18:45:48.310Z,92.60
2018-08-03T18:48:17.622Z,89.40
2018-08-03T18:50:47.694Z,92.60
2018-08-03T18:53:16.967Z,93.10
2018-08-03T18:55:47.214Z,97.80
2018-08-03T18:58:17.053Z,99.50
2018-08-03T19:00:47.032Z,95.70
2018-08-03T19:21:20.535Z,94.50
2018-08-03T19:23:49.771Z,94.60
2018-08-03T19:26:19.063Z,95.60
2018-08-03T19:46:51.837Z,99.90
2018-08-03T19:49:21.783Z,99.90
2018-08-03T19:51:51.085Z,99.90
2018-08-03T19:54:20.422Z,99.90
2018-08-03T19:56:50.542Z,99.90
2018-08-03T19:59:19.844Z,99.90
2018-08-03T20:19:52.743Z,99.90
2018-08-03T20:22:22.164Z,97.20
2018-08-03T20:24:52.178Z,98.90
2018-08-03T20:27:21.480Z,98.40
2018-08-03T20:29:50.835Z,99.60
2018-08-03T20:32:21.143Z,99.60
2018-08-03T20:34:51.158Z,99.90
2018-08-03T20:37:20.446Z,99.90
2018-08-03T20:39:49.743Z,97.20
2018-08-03T20:42:19.189Z,98.90
2018-08-03T21:02:53.590Z,99.90
2018-08-03T21:05:22.906Z,99.90
2018-08-03T21:07:52.182Z,99.90
2018-08-03T21:10:21.874Z,99.90
2018-08-03T21:12:51.836Z,99.90
2018-08-03T21:15:21.268Z,99.90
2018-08-03T21:17:50.553Z,99.90
2018-08-03T21:20:19.858Z,99.90
2018-08-03T21:22:49.170Z,99.90
2018-08-03T21:25:18.344Z,99.90
2018-08-03T21:27:47.671Z,99.90
2018-08-03T21:30:16.992Z,99.90
2018-08-03T21:32:47.539Z,99.90
2018-08-03T21:35:16.764Z,99.90
2018-08-03T21:37:46.054Z,99.90
2018-08-03T21:40:15.409Z,99.90
2018-08-03T22:00:49.530Z,99.90
2018-08-03T22:03:18.889Z,99.90
2018-08-03T22:05:48.201Z,99.90
2018-08-03T22:08:18.316Z,99.90
2018-08-03T22:10:48.154Z,99.90
2018-08-03T22:13:17.547Z,99.90
2018-08-03T22:15:47.361Z,99.90
2018-08-03T22:18:16.609Z,99.90
2018-08-03T22:20:45.897Z,99.90
2018-08-03T22:23:15.181Z,99.90
2018-08-03T22:25:44.411Z,99.90
2018-08-03T22:28:13.669Z,99.90
2018-08-03T22:30:43.074Z,99.90
2018-08-03T22:33:12.355Z,99.90
2018-08-03T22:35:41.749Z,99.90
2018-08-03T22:38:11.722Z,99.90
2018-08-03T22:40:40.965Z,99.90
2018-08-03T22:43:10.230Z,99.90
2018-08-03T22:45:39.710Z,99.90
2018-08-03T22:48:08.936Z,99.90
2018-08-03T23:08:35.802Z,99.90
2018-08-03T23:11:05.228Z,99.90
2018-08-03T23:13:34.566Z,99.90
2018-08-03T23:16:04.789Z,99.90
2018-08-03T23:18:34.093Z,99.90
2018-08-03T23:21:03.338Z,99.90
2018-08-03T23:23:32.577Z,99.90
2018-08-03T23:26:01.832Z,99.90
2018-08-03T23:28:32.083Z,99.90
2018-08-03T23:31:01.943Z,99.90
2018-08-03T23:33:31.404Z,99.90
2018-08-03T23:36:00.642Z,99.90
2018-08-03T23:38:30.180Z,99.90
2018-08-03T23:40:59.557Z,99.90
